createdAt,value
2018-02-14T00:00:21.027Z,69.82
2018-02-14T00:01:21.491Z,69.84
2018-02-14T00:02:21.951Z,69.79
2018-02-14T00:03:22.408Z,69.69
2018-02-14T00:04:22.923Z,69.59
2018-02-14T00:05:23.334Z,69.47
2018-02-14T00:06:23.795Z,69.36
2018-02-14T00:07:24.252Z,69.49
2018-02-14T00:08:24.717Z,69.46
2018-02-14T00:09:25.235Z,69.41
2018-02-14T00:10:25.641Z,69.36
2018-02-14T00:11:26.101Z,69.19
2018-02-14T00:12:26.561Z,69.18
2018-02-14T00:13:27.028Z,69.11
2018-02-14T00:14:27.577Z,68.96
2018-02-14T00:15:27.948Z,68.86
2018-02-14T00:16:28.407Z,69.01
2018-02-14T00:17:28.868Z,69.13
2018-02-14T00:18:29.325Z,69.25
2018-02-14T00:19:29.791Z,69.32
2018-02-14T00:20:30.251Z,69.39
2018-02-14T00:21:30.714Z,69.63
2018-02-14T00:22:31.180Z,69.65
2018-02-14T00:23:31.634Z,69.80
2018-02-14T00:25:32.551Z,69.84
2018-02-14T00:26:33.019Z,69.87
2018-02-14T00:27:33.481Z,69.99
2018-02-14T00:28:33.940Z,69.96
2018-02-14T00:29:34.398Z,69.86
2018-02-14T00:30:34.862Z,69.79
2018-02-14T00:31:35.325Z,69.69
2018-02-14T00:32:35.787Z,69.47
2018-02-14T00:34:36.758Z,69.35
2018-02-14T00:35:37.166Z,69.32
2018-02-14T00:36:37.623Z,69.41
2018-02-14T00:37:38.089Z,69.56
2018-02-14T00:38:38.551Z,69.83
2018-02-14T00:39:39.012Z,69.95
2018-02-14T00:40:39.478Z,70.14
2018-02-14T00:41:39.934Z,70.29
2018-02-14T00:42:40.396Z,70.36
2018-02-14T00:43:40.855Z,70.41
2018-02-14T00:44:41.368Z,70.28
2018-02-14T00:45:41.777Z,70.19
2018-02-14T00:47:42.700Z,69.95
2018-02-14T00:48:43.159Z,69.80
2018-02-14T00:49:43.626Z,69.70
2018-02-14T00:50:44.082Z,69.72
2018-02-14T00:51:44.544Z,69.65
2018-02-14T00:52:45.006Z,69.52
2018-02-14T00:53:45.466Z,69.60
2018-02-14T00:54:45.928Z,69.64
2018-02-14T00:55:46.386Z,69.69
2018-02-14T00:56:46.855Z,69.71
2018-02-14T00:57:47.308Z,69.91
2018-02-14T00:58:47.766Z,69.93
2018-02-14T00:59:48.233Z,70.07
2018-02-14T01:00:48.691Z,70.08
2018-02-14T01:01:49.152Z,69.98
2018-02-14T01:02:49.613Z,69.93
2018-02-14T01:04:50.588Z,69.95
2018-02-14T01:05:51.336Z,69.83
2018-02-14T01:06:51.457Z,69.85
2018-02-14T01:07:51.916Z,69.95
2018-02-14T01:08:52.377Z,69.92
2018-02-14T01:09:52.838Z,69.95
2018-02-14T01:10:53.301Z,69.95
2018-02-14T01:11:53.761Z,70.06
2018-02-14T01:12:54.225Z,70.16
2018-02-14T01:13:54.682Z,70.09
2018-02-14T01:14:55.145Z,70.09
2018-02-14T01:15:55.604Z,70.21
2018-02-14T01:16:56.059Z,70.50
2018-02-14T01:17:56.525Z,70.74
2018-02-14T01:18:56.987Z,70.81
2018-02-14T01:19:57.445Z,70.86
2018-02-14T01:20:57.903Z,70.91
2018-02-14T01:21:58.377Z,70.98
2018-02-14T01:24:59.800Z,71.17
2018-02-14T01:26:00.212Z,71.31
2018-02-14T01:28:01.128Z,71.29
2018-02-14T01:29:01.595Z,71.24
2018-02-14T01:30:02.054Z,71.43
2018-02-14T01:31:02.518Z,71.67
2018-02-14T01:32:02.970Z,71.91
2018-02-14T01:34:03.898Z,72.19
2018-02-14T01:35:04.358Z,72.12
2018-02-14T01:36:04.818Z,72.12
2018-02-14T01:37:05.279Z,71.88
2018-02-14T01:39:06.197Z,71.41
2018-02-14T01:40:07.001Z,71.12
2018-02-14T01:41:07.123Z,71.02
2018-02-14T01:43:08.044Z,70.78
2018-02-14T01:44:08.542Z,70.59
2018-02-14T01:45:09.015Z,70.42
2018-02-14T01:46:09.425Z,70.27
2018-02-14T01:47:09.888Z,70.15
2018-02-14T01:49:10.807Z,69.98
2018-02-14T01:50:11.263Z,69.86
2018-02-14T01:51:11.728Z,69.80
2018-02-14T01:52:12.188Z,69.76
2018-02-14T01:53:12.650Z,69.78
2018-02-14T01:54:13.115Z,69.75
2018-02-14T01:55:13.573Z,69.73
2018-02-14T01:56:14.031Z,69.70
2018-02-14T01:57:14.486Z,69.78
2018-02-14T01:59:15.418Z,69.94
2018-02-14T02:01:16.331Z,69.86
2018-02-14T02:02:16.795Z,69.94
2018-02-14T02:03:17.257Z,70.03
2018-02-14T02:04:17.715Z,69.96
2018-02-14T02:05:18.227Z,70.06
2018-02-14T02:06:18.637Z,69.99
2018-02-14T02:07:19.440Z,69.98
2018-02-14T02:08:19.555Z,70.13
2018-02-14T02:09:20.019Z,70.20
2018-02-14T02:10:20.488Z,70.25
2018-02-14T02:11:20.941Z,70.17
2018-02-14T02:12:21.398Z,70.27
2018-02-14T02:13:21.863Z,70.25
2018-02-14T02:14:22.322Z,70.32
2018-02-14T02:15:22.835Z,70.42
2018-02-14T02:16:23.243Z,70.51
2018-02-14T02:17:23.706Z,70.80
2018-02-14T02:18:24.164Z,70.85
2018-02-14T02:19:24.623Z,70.75
2018-02-14T02:21:25.547Z,71.07
2018-02-14T02:22:26.009Z,71.13
2018-02-14T02:24:26.928Z,70.80
2018-02-14T02:25:27.443Z,70.70
2018-02-14T02:26:27.850Z,70.53
2018-02-14T02:27:28.311Z,70.63
2018-02-14T02:28:28.771Z,70.50
2018-02-14T02:29:29.232Z,70.36
2018-02-14T02:30:29.687Z,70.36
2018-02-14T02:31:30.153Z,70.50
2018-02-14T02:32:30.965Z,70.40
2018-02-14T02:33:31.077Z,70.55
2018-02-14T02:34:31.535Z,70.48
2018-02-14T02:35:31.997Z,70.31
2018-02-14T02:36:32.454Z,70.09
2018-02-14T02:37:32.918Z,69.92
2018-02-14T02:38:33.377Z,69.87
2018-02-14T02:39:33.874Z,69.80
2018-02-14T02:40:34.297Z,69.60
2018-02-14T02:41:34.756Z,69.53
2018-02-14T02:42:35.232Z,69.33
2018-02-14T02:43:35.678Z,69.31
2018-02-14T02:44:36.138Z,69.26
2018-02-14T02:45:48.233Z,69.21
2018-02-14T02:46:37.098Z,69.11
2018-02-14T02:47:37.524Z,69.08
2018-02-14T02:48:37.978Z,68.98
2018-02-14T02:49:38.445Z,68.95
2018-02-14T02:50:38.903Z,68.85
2018-02-14T02:51:39.365Z,68.80
2018-02-14T02:52:39.818Z,68.75
2018-02-14T02:53:40.285Z,68.80
2018-02-14T02:54:40.745Z,68.70
2018-02-14T02:55:41.254Z,68.65
2018-02-14T02:56:41.665Z,68.67
2018-02-14T02:57:42.129Z,68.84
2018-02-14T02:58:42.588Z,68.86
2018-02-14T02:59:43.042Z,68.89
2018-02-14T03:00:43.558Z,68.89
2018-02-14T03:01:43.968Z,68.98
2018-02-14T03:03:44.885Z,69.42
2018-02-14T03:04:45.347Z,69.78
2018-02-14T03:05:45.859Z,69.86
2018-02-14T03:06:46.609Z,69.83
2018-02-14T03:07:46.730Z,69.83
2018-02-14T03:08:47.189Z,69.69
2018-02-14T03:09:47.649Z,69.54
2018-02-14T03:10:48.107Z,69.42
2018-02-14T03:11:48.571Z,69.29
2018-02-14T03:12:49.034Z,69.20
2018-02-14T03:13:49.492Z,69.14
2018-02-14T03:14:49.954Z,69.05
2018-02-14T03:15:50.414Z,68.85
2018-02-14T03:16:50.873Z,68.73
2018-02-14T03:17:51.336Z,68.70
2018-02-14T03:18:51.795Z,68.65
2018-02-14T03:19:52.255Z,68.87
2018-02-14T03:20:52.715Z,69.28
2018-02-14T03:21:53.173Z,69.40
2018-02-14T03:22:53.636Z,69.40
2018-02-14T03:23:54.094Z,69.48
2018-02-14T03:24:54.556Z,69.86
2018-02-14T03:25:55.065Z,70.25
2018-02-14T03:26:55.476Z,70.64
2018-02-14T03:27:55.940Z,70.83
2018-02-14T03:28:56.397Z,71.04
2018-02-14T03:29:56.860Z,71.23
2018-02-14T03:30:57.369Z,71.35
2018-02-14T03:31:57.779Z,71.38
2018-02-14T03:32:58.233Z,71.48
2018-02-14T03:34:59.160Z,71.81
2018-02-14T03:35:59.622Z,71.93
2018-02-14T03:37:00.084Z,71.91
2018-02-14T03:38:00.541Z,72.03
2018-02-14T03:39:01.000Z,72.12
2018-02-14T03:40:01.457Z,71.98
2018-02-14T03:41:01.970Z,71.96
2018-02-14T03:42:02.382Z,71.74
2018-02-14T03:43:03.046Z,71.50
2018-02-14T03:44:03.300Z,71.29
2018-02-14T03:45:03.761Z,71.08
2018-02-14T03:47:04.683Z,70.78
2018-02-14T03:48:05.143Z,70.61
2018-02-14T03:49:05.604Z,70.47
2018-02-14T03:51:06.522Z,70.15
2018-02-14T03:52:07.326Z,70.03
2018-02-14T03:53:07.445Z,69.93
2018-02-14T03:54:07.906Z,70.01
2018-02-14T03:55:08.360Z,70.34
2018-02-14T03:56:20.305Z,70.82
2018-02-14T03:57:09.288Z,71.20
2018-02-14T03:58:09.745Z,71.63
2018-02-14T03:59:10.209Z,71.84
2018-02-14T04:00:10.667Z,72.11
2018-02-14T04:01:11.173Z,72.25
2018-02-14T04:02:11.586Z,72.49
2018-02-14T04:03:12.047Z,72.65
2018-02-14T04:04:12.508Z,72.81
2018-02-14T04:05:12.968Z,72.93
2018-02-14T04:06:13.480Z,73.19
2018-02-14T04:08:14.349Z,73.66
2018-02-14T04:09:14.808Z,73.80
2018-02-14T04:10:15.307Z,73.97
2018-02-14T04:11:15.782Z,74.00
2018-02-14T04:12:16.188Z,74.09
2018-02-14T04:13:16.649Z,74.18
2018-02-14T04:14:17.111Z,74.30
2018-02-14T04:15:17.570Z,74.35
2018-02-14T04:17:30.273Z,74.44
2018-02-14T04:18:18.952Z,74.52
2018-02-14T04:19:19.409Z,74.63
2018-02-14T04:20:19.873Z,74.64
2018-02-14T04:21:20.333Z,74.79
2018-02-14T04:22:20.843Z,74.98
2018-02-14T04:23:21.250Z,74.94
2018-02-14T04:24:21.713Z,75.00
2018-02-14T04:25:22.172Z,75.05
2018-02-14T04:26:22.634Z,75.10
2018-02-14T04:27:23.145Z,74.89
2018-02-14T04:28:23.555Z,74.89
2018-02-14T04:29:24.016Z,74.96
2018-02-14T04:30:24.470Z,74.94
2018-02-14T04:31:24.934Z,74.99
2018-02-14T04:32:25.399Z,74.97
2018-02-14T04:34:26.316Z,74.94
2018-02-14T04:35:26.775Z,74.78
2018-02-14T04:36:27.233Z,74.94
2018-02-14T04:37:27.747Z,75.13
2018-02-14T04:38:28.151Z,75.22
2018-02-14T04:39:28.616Z,75.15
2018-02-14T04:40:29.078Z,75.15
2018-02-14T04:41:29.737Z,75.06
2018-02-14T04:42:29.996Z,74.99
2018-02-14T04:43:30.457Z,75.13
2018-02-14T04:44:30.918Z,75.20
2018-02-14T04:45:31.371Z,75.15
2018-02-14T04:46:31.837Z,75.15
2018-02-14T04:47:32.349Z,75.01
2018-02-14T04:48:32.758Z,75.20
2018-02-14T04:49:33.218Z,75.27
2018-02-14T04:51:34.140Z,75.27
2018-02-14T04:52:34.599Z,75.18
2018-02-14T04:53:35.061Z,75.25
2018-02-14T04:54:35.520Z,75.22
2018-02-14T04:55:35.980Z,75.22
2018-02-14T04:56:36.439Z,75.22
2018-02-14T04:57:36.951Z,75.25
2018-02-14T04:58:37.356Z,75.24
2018-02-14T04:59:37.823Z,75.18
2018-02-14T05:00:38.281Z,75.18
2018-02-14T05:01:38.740Z,75.29
2018-02-14T05:02:39.247Z,75.38
2018-02-14T05:03:39.661Z,75.41
2018-02-14T05:04:40.325Z,75.52
2018-02-14T05:05:40.581Z,75.55
2018-02-14T05:06:41.045Z,75.57
2018-02-14T05:07:41.555Z,75.41
2018-02-14T05:08:41.963Z,75.36
2018-02-14T05:09:42.423Z,75.27
2018-02-14T05:11:43.345Z,75.16
2018-02-14T05:12:43.859Z,75.27
2018-02-14T05:13:44.264Z,75.25
2018-02-14T05:14:44.726Z,75.18
2018-02-14T05:15:45.186Z,75.09
2018-02-14T05:16:45.646Z,75.16
2018-02-14T05:17:46.155Z,75.34
2018-02-14T05:19:47.028Z,75.09
2018-02-14T05:20:47.486Z,75.11
2018-02-14T05:21:47.947Z,75.05
2018-02-14T05:22:48.457Z,75.02
2018-02-14T05:23:48.864Z,75.00
2018-02-14T05:24:49.326Z,75.04
2018-02-14T05:25:49.786Z,75.23
2018-02-14T05:26:50.248Z,75.09
2018-02-14T05:27:50.708Z,74.88
2018-02-14T05:28:51.170Z,75.04
2018-02-14T05:29:51.628Z,74.86
2018-02-14T05:31:52.548Z,75.00
2018-02-14T05:32:53.055Z,74.95
2018-02-14T05:33:53.471Z,75.00
2018-02-14T05:34:53.926Z,75.14
2018-02-14T05:35:54.390Z,75.18
2018-02-14T05:36:54.850Z,75.13
2018-02-14T05:37:55.360Z,75.09
2018-02-14T05:38:55.769Z,75.02
2018-02-14T05:39:56.231Z,75.02
2018-02-14T05:40:56.692Z,75.06
2018-02-14T05:41:57.150Z,75.00
2018-02-14T05:42:57.661Z,75.13
2018-02-14T05:43:58.069Z,75.04
2018-02-14T05:44:58.534Z,75.09
2018-02-14T05:45:58.989Z,74.84
2018-02-14T05:46:59.451Z,74.86
2018-02-14T05:47:59.912Z,74.81
2018-02-14T05:49:00.372Z,74.86
2018-02-14T05:52:01.752Z,75.14
2018-02-14T05:53:02.209Z,74.99
2018-02-14T05:54:02.672Z,74.90
2018-02-14T05:55:03.133Z,74.88
2018-02-14T05:56:03.594Z,74.99
2018-02-14T05:57:04.054Z,74.95
2018-02-14T05:58:04.508Z,75.09
2018-02-14T05:59:04.973Z,75.04
2018-02-14T06:00:05.436Z,75.02
2018-02-14T06:01:05.895Z,75.02
2018-02-14T06:02:06.349Z,75.06
2018-02-14T06:03:06.814Z,74.99
2018-02-14T06:04:07.275Z,75.04
2018-02-14T06:05:07.733Z,74.97
2018-02-14T06:06:08.193Z,74.97
2018-02-14T06:07:08.651Z,75.13
2018-02-14T06:08:09.114Z,75.04
2018-02-14T06:09:09.575Z,74.99
2018-02-14T06:10:10.035Z,74.88
2018-02-14T06:11:10.495Z,74.99
2018-02-14T06:12:10.957Z,74.97
2018-02-14T06:14:11.874Z,74.56
2018-02-14T06:15:12.335Z,74.35
2018-02-14T06:16:12.795Z,74.21
2018-02-14T06:17:13.256Z,74.14
2018-02-14T06:18:13.714Z,74.39
2018-02-14T06:19:14.175Z,74.46
2018-02-14T06:20:14.636Z,74.58
2018-02-14T06:21:15.096Z,74.58
2018-02-14T06:22:15.557Z,74.63
2018-02-14T06:23:16.018Z,74.63
2018-02-14T06:24:16.476Z,74.44
2018-02-14T06:25:16.932Z,74.47
2018-02-14T06:27:17.855Z,74.70
2018-02-14T06:29:18.778Z,74.93
2018-02-14T06:30:19.232Z,75.07
2018-02-14T06:31:19.698Z,75.19
2018-02-14T06:32:20.158Z,75.40
2018-02-14T06:33:20.618Z,75.57
2018-02-14T06:34:21.072Z,75.59
2018-02-14T06:35:21.538Z,75.64
2018-02-14T06:36:21.997Z,75.76
2018-02-14T06:37:22.460Z,75.95
2018-02-14T06:38:22.965Z,76.05
2018-02-14T06:39:23.378Z,76.24
2018-02-14T06:40:23.839Z,76.45
2018-02-14T06:41:24.300Z,76.53
2018-02-14T06:42:24.760Z,76.68
2018-02-14T06:43:25.276Z,76.76
2018-02-14T06:44:25.681Z,76.78
2018-02-14T06:45:26.141Z,76.71
2018-02-14T06:46:26.602Z,76.88
2018-02-14T06:47:27.063Z,77.16
2018-02-14T06:48:27.574Z,77.31
2018-02-14T06:50:28.445Z,77.58
2018-02-14T06:52:29.362Z,77.74
2018-02-14T06:53:29.877Z,77.94
2018-02-14T06:54:30.287Z,78.04
2018-02-14T06:55:30.748Z,78.19
2018-02-14T06:56:31.210Z,78.45
2018-02-14T06:57:31.670Z,78.44
2018-02-14T06:58:32.184Z,78.33
2018-02-14T06:59:32.590Z,78.28
2018-02-14T07:00:33.055Z,78.37
2018-02-14T07:01:33.517Z,78.42
2018-02-14T07:02:33.976Z,78.56
2018-02-14T07:03:34.487Z,78.53
2018-02-14T07:04:34.901Z,78.48
2018-02-14T07:05:35.361Z,78.56
2018-02-14T07:06:35.821Z,78.74
2018-02-14T07:07:36.284Z,78.89
2018-02-14T07:08:36.797Z,78.96
2018-02-14T07:09:37.206Z,79.07
2018-02-14T07:10:37.666Z,79.18
2018-02-14T07:11:38.131Z,79.20
2018-02-14T07:12:38.590Z,79.26
2018-02-14T07:13:39.103Z,79.37
2018-02-14T07:14:39.513Z,79.50
2018-02-14T07:15:39.976Z,79.59
2018-02-14T07:16:40.438Z,79.52
2018-02-14T07:17:40.897Z,79.55
2018-02-14T07:18:41.412Z,79.75
2018-02-14T07:19:41.823Z,79.64
2018-02-14T07:21:42.746Z,79.81
2018-02-14T07:22:43.210Z,79.79
2018-02-14T07:23:43.723Z,79.99
2018-02-14T07:24:44.136Z,79.95
2018-02-14T07:25:44.598Z,79.99
2018-02-14T07:26:45.060Z,79.99
2018-02-14T07:28:45.980Z,79.96
2018-02-14T07:29:46.447Z,80.03
2018-02-14T07:30:46.910Z,80.14
2018-02-14T07:31:47.374Z,80.05
2018-02-14T07:32:47.832Z,80.21
2018-02-14T07:34:00.434Z,80.19
2018-02-14T07:34:48.761Z,80.14
2018-02-14T07:35:49.224Z,80.14
2018-02-14T07:36:49.687Z,80.08
2018-02-14T07:37:50.150Z,80.12
2018-02-14T07:38:50.615Z,80.19
2018-02-14T07:39:51.072Z,80.28
2018-02-14T07:40:51.541Z,80.06
2018-02-14T07:41:52.003Z,80.03
2018-02-14T07:43:52.980Z,79.86
2018-02-14T07:45:53.862Z,79.76
2018-02-14T07:46:54.320Z,79.83
2018-02-14T07:47:54.786Z,79.72
2018-02-14T07:48:55.246Z,79.56
2018-02-14T07:49:55.711Z,79.49
2018-02-14T07:50:56.170Z,79.33
2018-02-14T07:51:56.640Z,79.47
2018-02-14T07:52:57.102Z,79.33
2018-02-14T07:53:57.618Z,79.32
2018-02-14T07:54:58.030Z,79.23
2018-02-14T07:55:58.494Z,79.35
2018-02-14T07:56:58.968Z,79.23
2018-02-14T07:57:59.420Z,79.12
2018-02-14T07:58:59.938Z,78.91
2018-02-14T08:00:00.352Z,78.84
2018-02-14T08:01:00.819Z,78.65
2018-02-14T08:02:01.280Z,78.40
2018-02-14T08:03:01.745Z,78.45
2018-02-14T08:05:02.697Z,78.19
2018-02-14T08:06:03.141Z,78.05
2018-02-14T08:07:03.605Z,77.95
2018-02-14T08:08:04.072Z,77.70
2018-02-14T08:09:04.534Z,77.49
2018-02-14T08:10:05.002Z,77.48
2018-02-14T08:11:05.465Z,77.24
2018-02-14T08:12:05.931Z,76.95
2018-02-14T08:13:06.398Z,76.86
2018-02-14T08:14:06.914Z,76.70
2018-02-14T08:15:07.327Z,76.61
2018-02-14T08:16:07.793Z,76.51
2018-02-14T08:17:08.259Z,76.36
2018-02-14T08:19:09.392Z,76.04
2018-02-14T08:20:09.656Z,75.80
2018-02-14T08:21:10.123Z,75.63
2018-02-14T08:22:10.585Z,75.62
2018-02-14T08:23:11.053Z,75.52
2018-02-14T08:24:11.575Z,75.42
2018-02-14T08:25:11.987Z,75.34
2018-02-14T08:26:12.453Z,75.21
2018-02-14T08:27:12.919Z,75.09
2018-02-14T08:28:13.385Z,74.88
2018-02-14T08:29:13.847Z,74.81
2018-02-14T08:30:14.318Z,74.80
2018-02-14T08:32:15.252Z,74.45
2018-02-14T08:33:15.714Z,74.04
2018-02-14T08:34:27.513Z,74.04
2018-02-14T08:35:16.652Z,73.91
2018-02-14T08:36:17.118Z,73.78
2018-02-14T08:37:17.586Z,73.67
2018-02-14T08:38:18.054Z,73.54
2018-02-14T08:39:18.520Z,73.35
2018-02-14T08:40:18.982Z,73.47
2018-02-14T08:41:19.455Z,73.16
2018-02-14T08:42:19.921Z,73.13
2018-02-14T08:43:20.388Z,73.02
2018-02-14T08:45:21.323Z,72.85
2018-02-14T08:46:21.790Z,72.79
2018-02-14T08:47:22.258Z,72.72
2018-02-14T08:48:22.726Z,72.66
2018-02-14T08:49:23.195Z,72.63
2018-02-14T08:50:23.662Z,72.39
2018-02-14T08:51:24.129Z,72.15
2018-02-14T08:52:24.799Z,71.84
2018-02-14T08:53:25.066Z,71.37
2018-02-14T08:54:25.534Z,71.34
2018-02-14T08:55:25.997Z,71.35
2018-02-14T08:56:26.470Z,71.26
2018-02-14T08:57:26.936Z,70.76
2018-02-14T08:58:27.408Z,70.85
2018-02-14T09:00:28.394Z,70.60
2018-02-14T09:01:28.811Z,70.20
2018-02-14T09:02:29.281Z,69.98
2018-02-14T09:03:29.743Z,69.94
2018-02-14T09:04:30.217Z,69.83
2018-02-14T09:05:42.574Z,69.20
2018-02-14T09:06:31.155Z,69.05
2018-02-14T09:07:31.617Z,68.81
2018-02-14T09:08:32.091Z,68.75
2018-02-14T09:09:32.560Z,68.22
2018-02-14T09:10:33.030Z,67.73
2018-02-14T09:11:33.498Z,67.38
2018-02-14T09:12:33.968Z,67.00
2018-02-14T09:14:34.901Z,66.65
2018-02-14T09:16:35.843Z,65.88
2018-02-14T09:17:36.314Z,65.71
2018-02-14T09:18:36.778Z,65.51
2018-02-14T09:19:37.251Z,65.60
2018-02-14T09:20:37.718Z,65.27
2018-02-14T09:21:38.238Z,64.88
2018-02-14T09:22:38.658Z,64.34
2018-02-14T09:23:39.127Z,64.51
2018-02-14T09:24:39.596Z,64.17
2018-02-14T09:25:40.061Z,64.07
2018-02-14T09:28:41.472Z,63.65
2018-02-14T09:29:41.938Z,63.38
2018-02-14T09:30:42.413Z,62.90
2018-02-14T09:31:42.931Z,63.21
2018-02-14T09:32:43.351Z,62.89
2018-02-14T09:33:43.823Z,62.49
2018-02-14T09:34:44.291Z,62.47
2018-02-14T09:35:44.761Z,61.89
2018-02-14T09:36:45.227Z,61.88
2018-02-14T09:37:45.701Z,61.80
2018-02-14T09:38:46.169Z,61.78
2018-02-14T09:39:46.640Z,61.41
2018-02-14T09:40:47.106Z,61.49
2018-02-14T09:41:47.630Z,61.61
2018-02-14T09:42:48.054Z,61.09
2018-02-14T09:43:48.517Z,61.29
2018-02-14T09:45:49.458Z,61.05
2018-02-14T09:46:49.977Z,60.86
2018-02-14T09:47:50.393Z,61.06
2018-02-14T09:48:50.866Z,60.73
2018-02-14T09:49:51.337Z,60.85
2018-02-14T09:50:51.807Z,60.66
2018-02-14T09:51:52.322Z,59.77
2018-02-14T09:52:52.747Z,60.25
2018-02-14T09:53:53.217Z,60.31
2018-02-14T09:54:53.690Z,60.29
2018-02-14T09:55:54.158Z,60.07
2018-02-14T09:57:55.149Z,60.11
2018-02-14T09:58:55.563Z,60.37
2018-02-14T09:59:56.041Z,60.24
2018-02-14T10:00:56.508Z,60.00
2018-02-14T10:01:56.980Z,59.86
2018-02-14T10:02:57.451Z,59.56
2018-02-14T10:03:57.920Z,58.74
2018-02-14T10:04:58.427Z,58.80
2018-02-14T10:05:58.860Z,58.16
2018-02-14T10:06:59.333Z,58.79
2018-02-14T10:09:00.272Z,57.32
2018-02-14T10:10:00.748Z,56.67
2018-02-14T10:11:01.215Z,56.07
2018-02-14T10:12:01.713Z,55.35
2018-02-14T10:13:02.155Z,56.48
2018-02-14T10:14:02.622Z,53.93
2018-02-14T10:15:03.096Z,55.19
2018-02-14T10:16:03.566Z,54.29
2018-02-14T10:17:04.037Z,54.18
2018-02-14T10:18:04.562Z,54.25
2018-02-14T10:19:04.979Z,53.90
2018-02-14T10:20:05.449Z,53.50
2018-02-14T10:21:05.920Z,53.47
2018-02-14T10:22:06.391Z,53.39
2018-02-14T10:23:06.912Z,53.67
2018-02-14T10:24:07.332Z,53.14
2018-02-14T10:25:07.799Z,53.03
2018-02-14T10:26:08.275Z,52.59
2018-02-14T10:27:08.745Z,53.07
2018-02-14T10:28:09.214Z,52.19
2018-02-14T10:29:09.683Z,52.14
2018-02-14T10:30:10.158Z,52.33
2018-02-14T10:31:10.669Z,51.53
2018-02-14T10:32:11.100Z,51.15
2018-02-14T10:33:11.571Z,51.51
2018-02-14T10:35:12.514Z,51.14
2018-02-14T10:36:12.977Z,50.57
2018-02-14T10:37:13.455Z,50.46
2018-02-14T10:39:14.397Z,49.99
2018-02-14T10:40:14.863Z,49.94
2018-02-14T10:41:15.339Z,49.92
2018-02-14T10:42:15.812Z,49.65
2018-02-14T10:43:16.332Z,49.66
2018-02-14T10:44:16.752Z,49.54
2018-02-14T10:45:17.224Z,49.37
2018-02-14T10:46:17.696Z,49.62
2018-02-14T10:47:18.162Z,49.14
2018-02-14T10:48:18.640Z,48.84
2018-02-14T10:49:19.125Z,48.76
2018-02-14T10:50:19.584Z,48.43
2018-02-14T10:51:20.053Z,48.41
2018-02-14T10:52:20.526Z,48.36
2018-02-14T10:53:21.048Z,47.93
2018-02-14T10:54:21.468Z,47.91
2018-02-14T10:55:21.938Z,47.76
2018-02-14T10:56:22.411Z,47.40
2018-02-14T10:57:22.882Z,47.41
2018-02-14T10:58:23.401Z,47.23
2018-02-14T10:59:23.829Z,46.90
2018-02-14T11:00:24.302Z,46.35
2018-02-14T11:01:24.771Z,46.72
2018-02-14T11:02:25.241Z,46.36
2018-02-14T11:03:25.764Z,46.08
2018-02-14T11:04:26.184Z,45.94
2018-02-14T11:05:26.651Z,45.82
2018-02-14T11:06:27.128Z,45.67
2018-02-14T11:07:27.601Z,45.55
2018-02-14T11:08:28.121Z,45.18
2018-02-14T11:09:28.543Z,45.03
2018-02-14T11:10:29.014Z,44.94
2018-02-14T11:11:29.489Z,44.76
2018-02-14T11:12:29.958Z,44.61
2018-02-14T11:13:30.482Z,44.68
2018-02-14T11:14:30.904Z,44.31
2018-02-14T11:15:31.376Z,44.22
2018-02-14T11:16:31.845Z,44.00
2018-02-14T11:17:32.659Z,43.85
2018-02-14T11:18:32.790Z,43.98
2018-02-14T11:19:33.267Z,43.92
2018-02-14T11:20:33.735Z,43.83
2018-02-14T11:21:34.201Z,43.58
2018-02-14T11:22:34.685Z,43.65
2018-02-14T11:23:35.156Z,43.49
2018-02-14T11:24:35.624Z,43.59
2018-02-14T11:25:36.099Z,43.41
2018-02-14T11:26:36.568Z,43.57
2018-02-14T11:27:37.043Z,43.60
2018-02-14T11:28:49.704Z,43.73
2018-02-14T11:29:37.983Z,43.67
2018-02-14T11:30:38.457Z,43.67
2018-02-14T11:31:38.931Z,43.67
2018-02-14T11:32:39.398Z,43.49
2018-02-14T11:33:39.873Z,43.46
2018-02-14T11:34:40.348Z,43.49
2018-02-14T11:35:40.818Z,43.42
2018-02-14T11:36:41.291Z,43.33
2018-02-14T11:37:41.762Z,43.42
2018-02-14T11:39:42.705Z,42.97
2018-02-14T11:40:43.183Z,43.22
2018-02-14T11:41:43.651Z,43.31
2018-02-14T11:42:44.125Z,43.53
2018-02-14T11:43:44.595Z,43.75
2018-02-14T11:44:45.068Z,43.93
2018-02-14T11:45:45.541Z,43.89
2018-02-14T11:46:46.014Z,43.85
2018-02-14T11:47:46.487Z,44.31
2018-02-14T11:48:46.959Z,44.27
2018-02-14T11:49:47.434Z,44.61
2018-02-14T11:50:47.900Z,44.51
2018-02-14T11:51:48.377Z,44.54
2018-02-14T11:52:48.850Z,44.68
2018-02-14T11:53:49.375Z,44.99
2018-02-14T11:54:49.789Z,45.23
2018-02-14T11:55:50.267Z,45.63
2018-02-14T11:56:50.739Z,45.81
2018-02-14T11:57:51.213Z,45.43
2018-02-14T11:58:51.686Z,45.87
2018-02-14T12:00:52.629Z,46.42
2018-02-14T12:01:53.102Z,46.29
2018-02-14T12:02:53.576Z,46.57
2018-02-14T12:03:54.101Z,46.66
2018-02-14T12:04:54.521Z,47.00
2018-02-14T12:05:54.993Z,46.97
2018-02-14T12:06:55.466Z,47.12
2018-02-14T12:07:55.940Z,47.06
2018-02-14T12:08:56.407Z,47.15
2018-02-14T12:10:57.357Z,47.12
2018-02-14T12:11:57.830Z,47.27
2018-02-14T12:12:58.301Z,47.61
2018-02-14T12:14:10.711Z,47.27
2018-02-14T12:14:59.248Z,47.54
2018-02-14T12:15:59.722Z,47.81
2018-02-14T12:17:00.195Z,47.99
2018-02-14T12:18:00.668Z,47.74
2018-02-14T12:19:01.190Z,47.80
2018-02-14T12:20:01.608Z,48.22
2018-02-14T12:21:02.126Z,48.64
2018-02-14T12:22:02.557Z,48.39
2018-02-14T12:23:03.030Z,48.38
2018-02-14T12:24:03.557Z,48.22
2018-02-14T12:25:03.975Z,48.19
2018-02-14T12:26:04.442Z,48.37
2018-02-14T12:27:04.920Z,49.09
2018-02-14T12:28:05.395Z,49.23
2018-02-14T12:29:05.917Z,49.50
2018-02-14T12:30:06.336Z,49.83
2018-02-14T12:31:06.810Z,49.54
2018-02-14T12:32:07.282Z,49.96
2018-02-14T12:33:07.751Z,50.74
2018-02-14T12:34:08.277Z,50.70
2018-02-14T12:35:08.701Z,51.05
2018-02-14T12:37:09.641Z,51.61
2018-02-14T12:38:10.119Z,51.96
2018-02-14T12:39:10.793Z,51.95
2018-02-14T12:40:11.063Z,51.61
2018-02-14T12:41:11.533Z,51.36
2018-02-14T12:42:12.009Z,51.68
2018-02-14T12:43:12.480Z,52.08
2018-02-14T12:44:12.954Z,52.02
2018-02-14T12:45:13.424Z,52.01
2018-02-14T12:46:13.901Z,52.62
2018-02-14T12:47:14.371Z,53.29
2018-02-14T12:48:14.842Z,53.46
2018-02-14T12:49:15.365Z,53.57
2018-02-14T12:50:15.788Z,53.63
2018-02-14T12:52:16.734Z,53.67
2018-02-14T12:53:17.201Z,54.02
2018-02-14T12:54:17.678Z,53.72
2018-02-14T12:55:18.151Z,53.62
2018-02-14T12:56:18.622Z,53.94
2018-02-14T12:57:19.095Z,54.13
2018-02-14T12:58:19.567Z,54.10
2018-02-14T12:59:20.242Z,54.32
2018-02-14T13:00:20.523Z,54.70
2018-02-14T13:01:20.985Z,54.60
2018-02-14T13:02:21.457Z,54.80
2018-02-14T13:03:21.931Z,54.76
2018-02-14T13:04:22.398Z,54.93
2018-02-14T13:05:22.874Z,55.27
2018-02-14T13:06:23.346Z,55.50
2018-02-14T13:07:23.819Z,55.55
2018-02-14T13:09:36.801Z,55.65
2018-02-14T13:10:25.237Z,55.82
2018-02-14T13:11:25.709Z,55.96
2018-02-14T13:12:26.182Z,56.21
2018-02-14T13:13:26.855Z,56.35
2018-02-14T13:15:27.595Z,56.62
2018-02-14T13:16:28.072Z,56.88
2018-02-14T13:17:28.537Z,56.84
2018-02-14T13:18:29.016Z,57.01
2018-02-14T13:19:29.539Z,57.03
2018-02-14T13:20:29.959Z,57.26
2018-02-14T13:21:30.432Z,57.42
2018-02-14T13:22:30.905Z,57.42
2018-02-14T13:23:31.373Z,57.56
2018-02-14T13:24:31.899Z,57.67
2018-02-14T13:25:32.320Z,57.78
2018-02-14T13:28:33.738Z,58.13
2018-02-14T13:29:45.795Z,58.19
2018-02-14T13:30:34.681Z,58.16
2018-02-14T13:31:35.154Z,58.30
2018-02-14T13:32:35.627Z,58.21
2018-02-14T13:33:36.099Z,58.40
2018-02-14T13:34:36.620Z,58.34
2018-02-14T13:35:37.043Z,58.45
2018-02-14T13:36:37.517Z,58.24
2018-02-14T13:37:37.987Z,58.27
2018-02-14T13:38:38.460Z,58.21
2018-02-14T13:39:50.817Z,58.29
2018-02-14T13:40:39.404Z,58.06
2018-02-14T13:41:39.874Z,58.14
2018-02-14T13:42:40.391Z,58.25
2018-02-14T13:45:41.759Z,58.15
2018-02-14T13:47:42.708Z,58.37
2018-02-14T13:48:43.182Z,58.26
2018-02-14T13:50:44.129Z,58.44
2018-02-14T13:51:44.602Z,58.64
2018-02-14T13:52:45.070Z,58.72
2018-02-14T13:53:45.545Z,58.75
2018-02-14T13:54:46.015Z,58.83
2018-02-14T13:55:46.481Z,59.02
2018-02-14T13:56:46.959Z,59.02
2018-02-14T13:57:47.429Z,58.85
2018-02-14T13:58:47.903Z,58.87
2018-02-14T13:59:48.374Z,58.81
2018-02-14T14:00:48.896Z,58.92
2018-02-14T14:01:49.318Z,59.06
2018-02-14T14:02:49.785Z,59.11